Terminal Aerodrome Forecast
Issued by NWS

Home | Current Version | Previous Version | Text Only | Print | Product List | Glossary On
Versions: 1 2 3 4 5 6 7 8 9 10 11 12 13 14 15
000
FTAK31 PAJN 242100 AAA
TAFAPG
TAF AMD
PAPG 242112Z 2421/2518 VRB04KT P6SM OVC015
     FM242300 06005KT P6SM VCSH SCT015 BKN100
     FM250300 VRB03KT P6SM SCT150
     FM251100 VRB03KT P6SM VCFG OVC010
      AMD LTD TO CLD VIS AND WIND 2506/2515=

USA.gov is the U.S. government's official web portal to all federal, state and local government web resources and services.